Portada
METAR-TAF:

METAR-TAF

Aeroports :

Lampang, Tailàndia

latitud: 18-17N, longitud: 099-31E, altitud: 241 m

Observació

L'informe es va fer fa 57 minuts, a les 06:00 UTC
Vent 3 kt amb direcció variable
Temperatura 30°C
Humitat 55%
Pressió 1014 hPa
Visibilitat 10 km o més
Núvols disperses a una alçada de 2500 ft
Núvols disperses a una alçada de 10000 ft

METAR: VTCL 110600Z VRB03KT 9999 SCT025 SCT100 30/20 Q1014 NOSIG

Hora: 13:57 (06:57 UTC)

Pronòstic

L'informe es va fer fa 1 hora i 57 minuts, a les 05:00 UTC
Pronòstic vàlid del 11 a les 06 UTC al 12 a les 06 UTC
Vent 4 kt del Sud-Est
Visibilitat 10 km o més
Núvols disperses a una alçada de 2500 ft
Evolucionant progressivament
l' 11 a les 21 UTC al 11 a les 23 UTC
Visibilitat: 4000 m
boirina
Evolucionant progressivament
l' 12 a les 01 UTC al 12 a les 03 UTC
Visibilitat 10 km o més

TAF: VTCL 110500Z 1106/1206 14004KT 9999 SCT025 BECMG 1121/1123 4000 BR BECMG 1201/1203 9999 NSW

Observacions i pronòstics meteorològics de més de 4000 aeroports (METAR i TAF).

Les estacions disponibles són els punts grocs i vermells al mapa.

Posi el ratolí al punt desitjat per veure el nom de l'estació.

Feu clic per veure les observacions i els pronòstics meteorològics.

Per canviar el mapa: feu clic els botons verds amb una creu de color negre per apropar; al botó verd amb un guió per allunyar la imatge; o en les fletxes verdes per a mapes adjacents.


METAR-TAF: